createdAt,value
2018-12-30T00:01:44.168Z,48.47
2018-12-30T00:04:18.036Z,48.31
2018-12-30T00:07:01.007Z,47.31
2018-12-30T00:09:35.344Z,48.05
2018-12-30T00:12:05.659Z,48.09
2018-12-30T00:14:39.104Z,48.27
2018-12-30T00:17:12.153Z,47.79
2018-12-30T00:19:42.821Z,48.05
2018-12-30T00:22:13.879Z,48.29
2018-12-30T00:24:46.125Z,48.54
2018-12-30T00:27:19.362Z,48.31
2018-12-30T00:29:53.187Z,47.75
2018-12-30T00:32:25.067Z,47.69
2018-12-30T00:34:58.568Z,47.80
2018-12-30T00:37:29.239Z,47.85
2018-12-30T00:40:01.029Z,47.86
2018-12-30T00:42:32.150Z,49.30
2018-12-30T00:45:03.532Z,49.37
2018-12-30T00:47:40.564Z,50.73
2018-12-30T00:50:12.650Z,51.58
2018-12-30T00:52:44.167Z,50.76
2018-12-30T00:55:15.147Z,50.60
2018-12-30T00:57:49.325Z,50.38
2018-12-30T01:00:22.535Z,50.88
2018-12-30T01:02:57.967Z,50.59
2018-12-30T01:05:29.256Z,50.45
2018-12-30T01:08:03.278Z,50.67
2018-12-30T01:10:34.914Z,49.69
2018-12-30T01:13:07.976Z,49.32
2018-12-30T01:15:44.372Z,49.65
2018-12-30T01:18:17.959Z,49.90
2018-12-30T01:20:48.956Z,50.04
2018-12-30T01:23:21.579Z,50.84
2018-12-30T01:25:54.672Z,50.29
2018-12-30T01:28:26.800Z,49.84
2018-12-30T01:31:11.154Z,50.20
2018-12-30T01:33:46.335Z,50.42
2018-12-30T01:36:21.022Z,50.01
2018-12-30T01:38:54.888Z,51.11
2018-12-30T01:41:27.997Z,51.13
2018-12-30T01:44:00.017Z,51.58
2018-12-30T01:46:34.556Z,51.57
2018-12-30T01:49:08.872Z,50.96
2018-12-30T01:51:53.841Z,51.47
2018-12-30T01:54:37.789Z,51.82
2018-12-30T01:57:21.616Z,52.08
2018-12-30T01:59:57.588Z,51.80
2018-12-30T02:02:31.478Z,52.93
2018-12-30T02:05:07.237Z,52.06
2018-12-30T02:07:39.362Z,52.94
2018-12-30T02:10:12.324Z,52.19
2018-12-30T02:12:44.207Z,50.70
2018-12-30T02:15:15.434Z,50.54
2018-12-30T02:17:46.560Z,50.86
2018-12-30T02:20:19.019Z,50.03
2018-12-30T02:23:02.154Z,49.92
2018-12-30T02:25:36.458Z,49.48
2018-12-30T02:28:08.774Z,50.03
2018-12-30T02:30:45.458Z,51.43
2018-12-30T02:33:19.790Z,51.44
2018-12-30T02:35:56.017Z,50.63
2018-12-30T02:38:33.259Z,50.36
2018-12-30T02:41:05.907Z,49.65
2018-12-30T02:43:40.634Z,49.94
2018-12-30T02:46:11.867Z,50.21
2018-12-30T02:48:44.010Z,49.99
2018-12-30T02:51:20.929Z,49.60
2018-12-30T02:53:56.490Z,49.51
2018-12-30T02:56:29.707Z,49.92
2018-12-30T02:59:01.160Z,49.10
2018-12-30T03:01:37.682Z,49.59
2018-12-30T03:04:11.936Z,49.69
2018-12-30T03:06:50.563Z,49.69
2018-12-30T03:09:29.220Z,48.89
2018-12-30T03:12:01.119Z,48.72
2018-12-30T03:14:32.353Z,48.58
2018-12-30T03:17:03.824Z,50.14
2018-12-30T03:19:35.781Z,49.62
2018-12-30T03:22:10.803Z,49.46
2018-12-30T03:24:50.039Z,48.97
2018-12-30T03:27:22.827Z,49.43
2018-12-30T03:29:55.733Z,48.47
2018-12-30T03:32:31.170Z,48.43
2018-12-30T03:35:03.032Z,48.54
2018-12-30T03:37:39.521Z,48.28
2018-12-30T03:40:14.548Z,47.54
2018-12-30T03:42:46.285Z,47.53
2018-12-30T03:45:18.983Z,48.66
2018-12-30T03:47:53.740Z,48.60
2018-12-30T03:50:26.908Z,47.81
2018-12-30T03:52:58.973Z,48.11
2018-12-30T03:55:33.989Z,47.87
2018-12-30T03:58:10.659Z,47.68
2018-12-30T04:00:41.952Z,48.05
2018-12-30T04:03:15.100Z,49.15
2018-12-30T04:05:47.912Z,48.61
2018-12-30T04:08:24.352Z,48.58
2018-12-30T04:10:59.366Z,48.40
2018-12-30T04:13:34.745Z,50.00
2018-12-30T04:16:05.897Z,50.58
2018-12-30T04:18:38.582Z,50.80
2018-12-30T04:21:10.441Z,50.74
2018-12-30T04:23:43.726Z,50.75
2018-12-30T04:26:14.864Z,49.92
2018-12-30T04:28:46.847Z,50.21
2018-12-30T04:31:19.331Z,49.71
2018-12-30T04:33:52.722Z,50.13
2018-12-30T04:36:26.662Z,49.72
2018-12-30T04:39:00.112Z,49.02
2018-12-30T04:41:32.717Z,49.97
2018-12-30T04:44:08.284Z,51.13
2018-12-30T04:46:41.783Z,50.48
2018-12-30T04:49:15.200Z,50.32
2018-12-30T04:51:48.691Z,50.21
2018-12-30T04:54:23.117Z,50.22
2018-12-30T04:57:15.258Z,51.14
2018-12-30T04:59:48.742Z,49.70
2018-12-30T05:02:20.780Z,50.49
2018-12-30T05:04:55.222Z,51.42
2018-12-30T05:07:33.679Z,51.75
2018-12-30T05:10:18.204Z,51.66
2018-12-30T05:13:16.572Z,51.56
2018-12-30T05:15:48.697Z,52.39
2018-12-30T05:18:22.234Z,51.13
2018-12-30T05:20:53.586Z,50.50
2018-12-30T05:23:24.722Z,51.63
2018-12-30T05:25:57.993Z,51.64
2018-12-30T05:28:31.834Z,51.31
2018-12-30T05:31:03.220Z,51.09
2018-12-30T05:33:34.683Z,50.69
2018-12-30T05:36:05.714Z,50.31
2018-12-30T05:38:35.985Z,50.54
2018-12-30T05:41:09.540Z,51.01
2018-12-30T05:43:42.002Z,50.91
2018-12-30T05:46:15.551Z,50.49
2018-12-30T05:48:47.200Z,49.99
2018-12-30T05:51:17.978Z,49.18
2018-12-30T05:53:51.597Z,48.85
2018-12-30T05:56:29.546Z,49.65
2018-12-30T05:59:05.988Z,48.70
2018-12-30T06:01:39.255Z,49.49
2018-12-30T06:04:11.846Z,49.17
2018-12-30T06:06:48.695Z,48.81
2018-12-30T06:09:22.225Z,48.57
2018-12-30T06:11:56.233Z,49.18
2018-12-30T06:14:30.436Z,49.61
2018-12-30T06:17:03.306Z,50.07
2018-12-30T06:19:34.631Z,49.51
2018-12-30T06:22:05.287Z,48.64
2018-12-30T06:24:37.725Z,49.26
2018-12-30T06:27:09.608Z,49.07
2018-12-30T06:29:45.464Z,48.77
2018-12-30T06:32:19.673Z,49.19
2018-12-30T06:34:50.894Z,48.63
2018-12-30T06:37:28.745Z,49.01
2018-12-30T06:40:01.112Z,48.79
2018-12-30T06:42:33.936Z,48.87
2018-12-30T06:45:06.727Z,48.64
2018-12-30T06:47:38.983Z,48.70
2018-12-30T06:50:12.391Z,49.01
2018-12-30T06:52:44.221Z,48.75
2018-12-30T06:55:16.162Z,48.83
2018-12-30T06:57:48.205Z,50.13
2018-12-30T07:00:19.148Z,50.52
2018-12-30T07:02:52.467Z,49.93
2018-12-30T07:05:24.087Z,49.34
2018-12-30T07:07:56.027Z,49.92
2018-12-30T07:10:28.099Z,50.26
2018-12-30T07:13:03.844Z,50.72
2018-12-30T07:15:35.909Z,50.86
2018-12-30T07:18:07.745Z,50.59
2018-12-30T07:20:45.026Z,50.42
2018-12-30T07:23:26.919Z,50.09
2018-12-30T07:25:57.944Z,49.88
2018-12-30T07:28:29.453Z,50.12
2018-12-30T07:31:00.478Z,49.36
2018-12-30T07:33:32.451Z,49.35
2018-12-30T07:36:03.162Z,50.18
2018-12-30T07:38:33.489Z,50.16
2018-12-30T07:41:04.976Z,49.92
2018-12-30T07:43:38.878Z,49.72
2018-12-30T07:46:11.549Z,49.12
2018-12-30T07:48:43.513Z,49.59
2018-12-30T07:51:14.983Z,49.38
2018-12-30T07:53:47.259Z,49.71
2018-12-30T07:56:18.299Z,50.06
2018-12-30T07:58:51.269Z,50.57
2018-12-30T08:01:22.712Z,50.25
2018-12-30T08:03:54.970Z,49.92
2018-12-30T08:06:28.991Z,49.69
2018-12-30T08:09:02.946Z,48.62
2018-12-30T08:11:44.052Z,49.11
2018-12-30T08:14:19.088Z,48.45
2018-12-30T08:16:50.540Z,48.66
2018-12-30T08:19:22.289Z,48.37
2018-12-30T08:21:53.812Z,48.80
2018-12-30T08:24:30.765Z,48.70
2018-12-30T08:27:07.796Z,48.64
2018-12-30T08:29:44.066Z,48.72
2018-12-30T08:32:17.218Z,48.48
2018-12-30T08:34:49.934Z,47.71
2018-12-30T08:37:21.224Z,47.99
2018-12-30T08:40:10.318Z,47.90
2018-12-30T08:42:43.688Z,47.32
2018-12-30T08:45:16.377Z,47.45
2018-12-30T08:47:49.589Z,47.20
2018-12-30T08:50:22.167Z,47.85
2018-12-30T08:52:53.603Z,47.35
2018-12-30T08:58:26.351Z,47.22
2018-12-30T09:00:59.968Z,47.02
2018-12-30T09:03:31.730Z,46.76
2018-12-30T09:06:04.280Z,46.80
2018-12-30T09:08:34.914Z,46.39
2018-12-30T09:11:06.662Z,46.47
2018-12-30T09:13:37.993Z,46.43
2018-12-30T09:16:10.602Z,46.13
2018-12-30T09:18:56.420Z,46.15
2018-12-30T09:21:28.954Z,46.41
2018-12-30T09:24:02.692Z,46.27
2018-12-30T09:26:35.841Z,45.99
2018-12-30T09:29:07.918Z,45.66
2018-12-30T09:31:46.129Z,45.54
2018-12-30T09:34:21.188Z,45.33
2018-12-30T09:36:56.229Z,45.32
2018-12-30T09:39:31.364Z,45.53
2018-12-30T09:42:05.910Z,45.24
2018-12-30T09:44:39.248Z,48.14
2018-12-30T09:47:13.405Z,46.64
2018-12-30T09:49:47.519Z,45.88
2018-12-30T09:52:20.421Z,45.76
2018-12-30T09:54:56.441Z,45.67
2018-12-30T09:57:49.010Z,45.30
2018-12-30T10:00:24.465Z,45.42
2018-12-30T10:02:57.929Z,45.67
2018-12-30T10:05:39.777Z,45.43
2018-12-30T10:08:13.462Z,45.61
2018-12-30T10:10:44.172Z,46.02
2018-12-30T10:13:17.807Z,46.01
2018-12-30T10:15:48.898Z,46.12
2018-12-30T10:18:23.144Z,45.80
2018-12-30T10:20:56.765Z,45.43
2018-12-30T10:23:29.852Z,45.61
2018-12-30T10:26:02.926Z,45.93
2018-12-30T10:28:34.909Z,46.26
2018-12-30T10:31:07.445Z,45.61
2018-12-30T10:33:43.463Z,45.88
2018-12-30T10:36:17.042Z,46.48
2018-12-30T10:38:49.075Z,46.30
2018-12-30T10:41:24.187Z,46.25
2018-12-30T10:43:57.040Z,47.26
2018-12-30T10:46:27.379Z,46.93
2018-12-30T10:48:59.311Z,47.53
2018-12-30T10:51:36.593Z,46.94
2018-12-30T10:54:09.093Z,47.01
2018-12-30T10:56:49.955Z,46.30
2018-12-30T10:59:23.253Z,49.29
2018-12-30T11:01:54.515Z,48.64
2018-12-30T11:04:27.300Z,48.44
2018-12-30T11:06:57.956Z,47.41
2018-12-30T11:09:29.330Z,46.96
2018-12-30T11:12:00.373Z,46.77
2018-12-30T11:14:31.578Z,47.27
2018-12-30T11:17:02.798Z,48.87
2018-12-30T11:19:38.670Z,48.21
2018-12-30T11:22:14.891Z,49.64
2018-12-30T11:24:47.317Z,48.21
2018-12-30T11:27:25.085Z,47.92
2018-12-30T11:30:31.156Z,47.13
2018-12-30T11:33:03.502Z,47.57
2018-12-30T11:35:38.461Z,48.59
2018-12-30T11:38:13.018Z,49.06
2018-12-30T11:40:50.872Z,48.34
2018-12-30T11:43:23.647Z,48.61
2018-12-30T11:46:00.943Z,48.35
2018-12-30T11:48:36.094Z,47.65
2018-12-30T11:51:16.778Z,47.73
2018-12-30T11:53:50.266Z,49.73
2018-12-30T11:56:21.908Z,48.35
2018-12-30T11:58:53.433Z,47.83
2018-12-30T12:01:26.720Z,48.04
2018-12-30T12:03:59.535Z,47.21
2018-12-30T12:06:35.337Z,48.86
2018-12-30T12:09:11.864Z,47.81
2018-12-30T12:11:48.806Z,47.14
2018-12-30T12:14:20.268Z,47.79
2018-12-30T12:16:52.616Z,48.46
2018-12-30T12:19:24.308Z,47.56
2018-12-30T12:21:56.740Z,47.17
2018-12-30T12:24:32.119Z,46.92
2018-12-30T12:27:15.762Z,46.94
2018-12-30T12:29:50.275Z,46.90
2018-12-30T12:32:21.394Z,46.94
2018-12-30T12:34:55.987Z,47.31
2018-12-30T12:37:29.724Z,46.79
2018-12-30T12:40:07.900Z,46.06
2018-12-30T12:42:39.574Z,46.27
2018-12-30T12:45:13.325Z,46.92
2018-12-30T12:47:43.933Z,46.49
2018-12-30T12:50:16.391Z,47.41
2018-12-30T12:52:48.719Z,46.96
2018-12-30T12:55:21.075Z,46.92
2018-12-30T12:57:54.208Z,47.18
2018-12-30T13:00:25.374Z,46.78
2018-12-30T13:02:58.116Z,47.23
2018-12-30T13:05:29.047Z,47.12
2018-12-30T13:08:02.177Z,46.13
2018-12-30T13:10:34.131Z,46.33
2018-12-30T13:13:06.667Z,45.71
2018-12-30T13:15:39.286Z,46.40
2018-12-30T13:18:10.592Z,46.27
2018-12-30T13:20:51.539Z,45.98
2018-12-30T13:23:24.342Z,45.38
2018-12-30T13:25:59.432Z,45.86
2018-12-30T13:28:37.977Z,46.00
2018-12-30T13:31:14.496Z,45.86
2018-12-30T13:33:52.534Z,46.39
2018-12-30T13:36:24.825Z,47.14
2018-12-30T13:38:57.625Z,46.54
2018-12-30T13:41:29.267Z,46.44
2018-12-30T13:44:00.532Z,46.16
2018-12-30T13:46:32.458Z,46.30
2018-12-30T13:49:03.394Z,45.75
2018-12-30T13:51:35.994Z,45.61
2018-12-30T13:54:12.016Z,45.41
2018-12-30T13:56:44.574Z,45.50
2018-12-30T13:59:15.803Z,46.24
2018-12-30T14:01:46.216Z,46.20
2018-12-30T14:04:17.579Z,46.15
2018-12-30T14:06:48.970Z,46.75
2018-12-30T14:09:20.793Z,46.54
2018-12-30T14:11:51.550Z,45.90
2018-12-30T14:14:23.063Z,45.64
2018-12-30T14:16:55.640Z,45.77
2018-12-30T14:19:27.004Z,45.46
2018-12-30T14:22:10.573Z,46.26
2018-12-30T14:24:55.259Z,46.58
2018-12-30T14:27:26.390Z,45.66
2018-12-30T14:30:02.089Z,46.03
2018-12-30T14:32:34.920Z,45.63
2018-12-30T14:35:32.639Z,45.59
2018-12-30T14:38:04.826Z,45.61
2018-12-30T14:40:41.926Z,45.55
2018-12-30T14:43:14.151Z,45.90
2018-12-30T14:45:51.190Z,46.36
2018-12-30T14:48:29.660Z,45.81
2018-12-30T14:51:03.679Z,47.76
2018-12-30T14:53:37.746Z,47.47
2018-12-30T14:56:11.746Z,46.79
2018-12-30T14:58:50.778Z,46.69
2018-12-30T15:01:22.878Z,46.08
2018-12-30T15:03:56.182Z,46.22
2018-12-30T15:06:31.640Z,46.36
2018-12-30T15:09:08.378Z,47.69
2018-12-30T15:11:41.510Z,47.25
2018-12-30T15:14:31.822Z,46.90
2018-12-30T15:17:05.120Z,46.41
2018-12-30T15:19:35.736Z,46.49
2018-12-30T15:22:12.192Z,47.42
2018-12-30T15:24:48.138Z,48.64
2018-12-30T15:27:21.678Z,47.13
2018-12-30T15:29:57.335Z,46.83
2018-12-30T15:32:34.541Z,46.40
2018-12-30T15:35:06.758Z,46.39
2018-12-30T15:37:43.017Z,46.03
2018-12-30T15:40:15.448Z,45.72
2018-12-30T15:42:49.312Z,45.75
2018-12-30T15:45:19.953Z,45.39
2018-12-30T15:47:56.587Z,45.32
2018-12-30T15:50:32.295Z,45.29
2018-12-30T15:53:04.562Z,45.22
2018-12-30T15:55:36.929Z,45.09
2018-12-30T15:58:08.773Z,46.11
2018-12-30T16:00:41.453Z,45.29
2018-12-30T16:03:15.842Z,45.07
2018-12-30T16:05:47.278Z,46.19
2018-12-30T16:08:27.613Z,45.27
2018-12-30T16:11:02.646Z,45.04
2018-12-30T16:13:38.572Z,46.81
2018-12-30T16:16:12.069Z,47.86
2018-12-30T16:18:43.978Z,47.95
2018-12-30T16:21:18.820Z,47.24
2018-12-30T16:23:54.152Z,48.65
2018-12-30T16:26:27.663Z,48.83
2018-12-30T16:29:00.857Z,49.30
2018-12-30T16:31:34.309Z,49.45
2018-12-30T16:34:08.550Z,50.24
2018-12-30T16:36:40.305Z,49.19
2018-12-30T16:39:14.627Z,48.93
2018-12-30T16:41:47.672Z,49.75
2018-12-30T16:44:21.429Z,51.24
2018-12-30T16:46:52.894Z,51.61
2018-12-30T16:49:25.022Z,53.07
2018-12-30T16:51:55.615Z,51.99
2018-12-30T16:54:26.410Z,51.66
2018-12-30T16:56:57.558Z,51.88
2018-12-30T16:59:30.247Z,52.05
2018-12-30T17:02:03.696Z,54.05
2018-12-30T17:04:40.965Z,53.24
2018-12-30T17:07:15.197Z,52.65
2018-12-30T17:09:47.163Z,55.08
2018-12-30T17:12:18.318Z,54.75
2018-12-30T17:14:51.465Z,55.09
2018-12-30T17:17:24.519Z,54.18
2018-12-30T17:20:01.120Z,53.51
2018-12-30T17:22:32.569Z,54.04
2018-12-30T17:25:07.737Z,53.83
2018-12-30T17:27:42.335Z,54.22
2018-12-30T17:30:18.892Z,53.73
2018-12-30T17:32:52.730Z,56.25
2018-12-30T17:35:26.292Z,55.97
2018-12-30T17:38:00.528Z,55.18
2018-12-30T17:40:38.557Z,54.79
2018-12-30T17:43:11.465Z,54.95
2018-12-30T17:45:47.330Z,54.50
2018-12-30T17:48:24.082Z,54.32
2018-12-30T17:51:02.408Z,54.80
2018-12-30T17:53:34.227Z,54.25
2018-12-30T17:56:07.452Z,53.97
2018-12-30T17:58:39.813Z,53.92
2018-12-30T18:01:15.060Z,54.23
2018-12-30T18:03:49.256Z,55.43
2018-12-30T18:06:22.242Z,54.77
2018-12-30T18:08:57.383Z,54.23
2018-12-30T18:11:31.624Z,54.69
2018-12-30T18:14:06.998Z,58.86
2018-12-30T18:16:43.250Z,56.26
2018-12-30T18:19:15.675Z,56.02
2018-12-30T18:21:47.959Z,55.29
2018-12-30T18:24:21.246Z,55.63
2018-12-30T18:27:06.178Z,55.01
2018-12-30T18:29:40.666Z,54.56
2018-12-30T18:32:13.536Z,55.96
2018-12-30T18:35:18.575Z,55.42
2018-12-30T18:37:53.940Z,56.29
2018-12-30T18:40:26.185Z,54.66
2018-12-30T18:42:58.096Z,55.34
2018-12-30T18:45:29.238Z,54.46
2018-12-30T18:48:02.573Z,55.08
2018-12-30T18:50:33.345Z,54.36
2018-12-30T18:53:04.063Z,54.36
2018-12-30T18:55:39.889Z,54.24
2018-12-30T18:58:16.344Z,55.08
2018-12-30T19:00:47.436Z,54.69
2018-12-30T19:03:18.461Z,54.19
2018-12-30T19:05:52.503Z,54.55
2018-12-30T19:08:25.687Z,55.25
2018-12-30T19:10:57.981Z,58.80
2018-12-30T19:13:35.787Z,56.74
2018-12-30T19:16:12.751Z,56.50
2018-12-30T19:18:46.057Z,57.22
2018-12-30T19:21:16.829Z,57.40
2018-12-30T19:23:48.715Z,59.62
2018-12-30T19:26:21.220Z,57.62
2018-12-30T19:28:52.225Z,57.87
2018-12-30T19:31:23.310Z,57.39
2018-12-30T19:33:58.610Z,58.74
2018-12-30T19:36:33.097Z,57.21
2018-12-30T19:39:20.101Z,56.49
2018-12-30T19:41:56.337Z,58.27
2018-12-30T19:44:34.578Z,56.44
2018-12-30T19:47:04.894Z,56.96
2018-12-30T19:49:36.937Z,56.96
2018-12-30T19:52:09.248Z,55.49
2018-12-30T19:54:40.190Z,55.56
2018-12-30T19:57:13.023Z,55.77
2018-12-30T19:59:44.579Z,55.06
2018-12-30T20:02:15.601Z,55.12
2018-12-30T20:04:51.677Z,54.71
2018-12-30T20:07:24.678Z,54.24
2018-12-30T20:09:56.108Z,54.35
2018-12-30T20:12:32.816Z,54.76
2018-12-30T20:15:13.708Z,54.25
2018-12-30T20:17:48.155Z,53.79
2018-12-30T20:20:21.161Z,53.49
2018-12-30T20:22:54.343Z,53.26
2018-12-30T20:25:26.033Z,53.03
2018-12-30T20:27:56.898Z,53.66
2018-12-30T20:30:28.957Z,53.54
2018-12-30T20:33:01.020Z,53.49
2018-12-30T20:35:39.575Z,53.81
2018-12-30T20:38:13.454Z,53.86
2018-12-30T20:40:46.726Z,54.20
2018-12-30T20:43:18.438Z,53.92
2018-12-30T20:46:01.517Z,54.54
2018-12-30T20:48:43.741Z,54.92
2018-12-30T20:51:17.480Z,54.69
2018-12-30T20:53:52.783Z,54.85
2018-12-30T20:56:28.367Z,54.46
2018-12-30T20:59:06.833Z,54.31
2018-12-30T21:01:41.766Z,54.32
2018-12-30T21:04:12.989Z,54.33
2018-12-30T21:06:45.699Z,54.64
2018-12-30T21:09:18.117Z,54.95
2018-12-30T21:11:49.047Z,54.47
2018-12-30T21:14:22.134Z,54.37
2018-12-30T21:16:55.942Z,54.12
2018-12-30T21:19:28.345Z,54.72
2018-12-30T21:22:02.543Z,55.49
2018-12-30T21:24:37.633Z,55.67
2018-12-30T21:27:16.157Z,55.20
2018-12-30T21:29:59.704Z,55.73
2018-12-30T21:32:35.849Z,55.91
2018-12-30T21:35:23.950Z,55.21
2018-12-30T21:38:00.898Z,56.71
2018-12-30T21:40:34.077Z,56.47
2018-12-30T21:43:19.203Z,56.06
2018-12-30T21:45:52.172Z,55.44
2018-12-30T21:48:25.166Z,55.73
2018-12-30T21:50:58.934Z,55.54
2018-12-30T21:53:30.604Z,55.51
2018-12-30T21:56:06.306Z,55.43
2018-12-30T21:58:38.336Z,55.62
2018-12-30T22:01:19.926Z,56.08
2018-12-30T22:03:56.996Z,56.15
2018-12-30T22:06:33.776Z,56.90
2018-12-30T22:09:07.433Z,56.40
2018-12-30T22:11:42.635Z,56.05
2018-12-30T22:14:16.837Z,57.06
2018-12-30T22:16:53.510Z,56.60
2018-12-30T22:19:28.470Z,56.44
2018-12-30T22:22:13.738Z,56.41
2018-12-30T22:24:55.751Z,56.03
2018-12-30T22:27:26.968Z,56.20
2018-12-30T22:30:00.166Z,55.94
2018-12-30T22:32:31.598Z,55.90
2018-12-30T22:35:03.521Z,55.34
2018-12-30T22:37:50.187Z,55.42
2018-12-30T22:40:23.945Z,55.36
2018-12-30T22:42:58.883Z,55.28
2018-12-30T22:45:37.959Z,55.84
2018-12-30T22:48:14.862Z,55.40
2018-12-30T22:50:54.198Z,55.33
2018-12-30T22:53:28.512Z,55.19
2018-12-30T22:56:02.846Z,54.99
2018-12-30T22:58:34.306Z,54.88
2018-12-30T23:01:12.273Z,54.92
2018-12-30T23:03:46.433Z,54.98
2018-12-30T23:06:18.188Z,54.71
2018-12-30T23:08:49.412Z,54.96
2018-12-30T23:11:22.075Z,55.61
2018-12-30T23:13:53.986Z,55.14
2018-12-30T23:16:26.094Z,54.85
2018-12-30T23:18:59.318Z,54.46
2018-12-30T23:24:57.382Z,55.18
2018-12-30T23:27:33.359Z,54.76
2018-12-30T23:30:15.205Z,55.49
2018-12-30T23:32:56.866Z,55.65
2018-12-30T23:35:37.432Z,55.98
2018-12-30T23:38:17.091Z,54.92
2018-12-30T23:40:50.773Z,55.38
2018-12-30T23:43:25.324Z,55.41
2018-12-30T23:45:58.499Z,55.10
2018-12-30T23:48:33.753Z,55.06
2018-12-30T23:51:08.248Z,55.01
2018-12-30T23:53:59.991Z,55.04
2018-12-30T23:56:32.193Z,55.45
2018-12-30T23:59:04.924Z,55.04
